Time;durP1;ratioP1;P1;durP2;ratioP2;P2;SDS_P1;SDS_P2;PMS_P1;PMS_P2;Temp;Humidity;BMP_temperature;BMP_pressure;BME280_temperature;BME280_humidity;BME280_pressure;Samples;Min_cycle;Max_cycle;Signal;HPM_P1;HPM_P2
2023/12/01 00:01:52;;;;;;;14.90;14.03;;;20.50;50.30;;;;;;5003999;28;20541;-70
2023/12/01 00:04:19;;;;;;;13.90;13.10;;;20.50;50.40;;;;;;5005366;28;20532;-70
2023/12/01 00:06:46;;;;;;;14.50;13.63;;;20.50;50.40;;;;;;5005166;28;20501;-70
2023/12/01 00:09:13;;;;;;;15.03;14.20;;;20.40;50.30;;;;;;5000700;28;20536;-70
2023/12/01 00:11:40;;;;;;;14.30;13.50;;;20.50;50.40;;;;;;5007966;28;20946;-70
2023/12/01 00:14:09;;;;;;;13.93;13.23;;;20.50;50.50;;;;;;5001816;28;20446;-69
2023/12/01 00:16:36;;;;;;;14.77;13.83;;;20.40;50.40;;;;;;5001540;28;20532;-69
2023/12/01 00:19:02;;;;;;;14.17;13.37;;;20.40;50.40;;;;;;5002188;28;21027;-70
2023/12/01 00:21:29;;;;;;;13.70;13.10;;;20.40;50.40;;;;;;5000893;28;20447;-69
2023/12/01 00:23:56;;;;;;;14.53;13.67;;;20.40;50.40;;;;;;5008987;28;20540;-71
2023/12/01 00:26:23;;;;;;;14.40;13.53;;;20.40;50.50;;;;;;4999427;28;20930;-68
2023/12/01 00:28:50;;;;;;;13.07;12.37;;;20.30;50.40;;;;;;5003778;28;20587;-69
2023/12/01 00:31:19;;;;;;;16.27;15.37;;;20.30;50.40;;;;;;5000714;28;20939;-70
2023/12/01 00:33:45;;;;;;;13.93;13.20;;;20.30;50.40;;;;;;5008037;28;20477;-69
2023/12/01 00:36:12;;;;;;;15.67;14.77;;;20.30;50.40;;;;;;4997575;28;20515;-70
2023/12/01 00:38:39;;;;;;;16.40;15.50;;;20.30;50.40;;;;;;5004253;28;20528;-70
2023/12/01 00:41:07;;;;;;;13.83;13.13;;;20.20;50.30;;;;;;5001618;28;20541;-70
2023/12/01 00:43:33;;;;;;;14.97;13.73;;;20.30;50.40;;;;;;5006661;28;20512;-70
2023/12/01 00:46:00;;;;;;;14.73;13.83;;;20.30;50.40;;;;;;4997245;28;20792;-69
2023/12/01 00:48:29;;;;;;;13.83;13.13;;;20.30;50.30;;;;;;5003866;28;20474;-70
2023/12/01 00:50:56;;;;;;;13.47;12.80;;;20.20;50.20;;;;;;5002904;28;20450;-69
2023/12/01 00:53:23;;;;;;;14.70;13.80;;;20.20;50.30;;;;;;5000721;28;20532;-70
2023/12/01 00:55:50;;;;;;;14.33;13.63;;;20.20;50.30;;;;;;4999980;28;20478;-66
2023/12/01 00:58:17;;;;;;;15.03;14.03;;;20.20;50.30;;;;;;5003612;28;20486;-70
2023/12/01 01:00:44;;;;;;;13.50;12.60;;;20.20;50.30;;;;;;5003639;28;20462;-70
2023/12/01 01:03:11;;;;;;;13.43;12.63;;;20.20;50.30;;;;;;5002126;28;20439;-70
2023/12/01 01:05:39;;;;;;;13.10;12.40;;;20.20;50.20;;;;;;5003943;28;20466;-70
2023/12/01 01:08:06;;;;;;;14.20;13.33;;;20.10;50.20;;;;;;5001505;28;20704;-71
2023/12/01 01:10:33;;;;;;;14.13;13.43;;;20.20;50.20;;;;;;5005929;28;20521;-70
2023/12/01 01:13:00;;;;;;;13.80;13.10;;;20.10;50.20;;;;;;5002537;28;20450;-69
2023/12/01 01:15:27;;;;;;;14.17;13.40;;;20.10;50.20;;;;;;5003487;28;20474;-69
2023/12/01 01:17:54;;;;;;;13.00;12.30;;;20.10;50.20;;;;;;5003087;28;20584;-70
2023/12/01 01:20:21;;;;;;;13.23;12.63;;;20.10;50.20;;;;;;5004333;28;20438;-69
2023/12/01 01:22:49;;;;;;;13.90;13.20;;;20.10;50.20;;;;;;5003553;28;20933;-69
2023/12/01 01:25:16;;;;;;;13.87;13.10;;;20.00;50.10;;;;;;5001460;28;20473;-69
2023/12/01 01:27:43;;;;;;;13.80;12.97;;;20.00;50.20;;;;;;5003624;28;20462;-72
2023/12/01 01:30:10;;;;;;;13.73;12.97;;;20.00;50.20;;;;;;5001071;28;20620;-70
2023/12/01 01:32:37;;;;;;;14.83;14.07;;;20.00;50.10;;;;;;5000058;28;20953;-70
2023/12/01 01:35:05;;;;;;;15.07;14.37;;;20.00;50.00;;;;;;5001883;28;20439;-69
2023/12/01 01:37:32;;;;;;;13.60;13.00;;;20.00;50.10;;;;;;5005395;28;20489;-69
2023/12/01 01:40:00;;;;;;;12.90;12.20;;;19.90;50.00;;;;;;5002296;28;20466;-70
2023/12/01 01:42:28;;;;;;;13.40;12.73;;;19.90;50.10;;;;;;5000083;28;20451;-69
2023/12/01 01:44:54;;;;;;;13.27;12.67;;;19.90;50.10;;;;;;5000810;28;20901;-69
2023/12/01 01:47:22;;;;;;;13.63;12.93;;;19.90;50.10;;;;;;5007020;28;20442;-70
2023/12/01 01:49:48;;;;;;;15.27;14.47;;;19.80;50.00;;;;;;5006933;28;20481;-69
2023/12/01 01:52:16;;;;;;;14.03;13.23;;;19.80;50.00;;;;;;5003747;28;20439;-69
2023/12/01 01:54:45;;;;;;;15.43;14.63;;;19.80;50.00;;;;;;5003108;28;20509;-69
2023/12/01 01:57:13;;;;;;;14.40;13.70;;;19.80;50.10;;;;;;5006162;28;20526;-69
2023/12/01 01:59:40;;;;;;;14.50;13.80;;;19.80;50.20;;;;;;5006862;28;20470;-70
2023/12/01 02:02:07;;;;;;;13.03;12.33;;;19.80;50.10;;;;;;5004706;28;20477;-70
2023/12/01 02:04:34;;;;;;;14.50;13.67;;;19.80;50.10;;;;;;5001961;28;20455;-70
2023/12/01 02:07:01;;;;;;;13.90;13.20;;;19.80;50.10;;;;;;5004301;28;20498;-69
2023/12/01 02:09:28;;;;;;;14.60;13.90;;;19.70;50.00;;;;;;5006645;28;20478;-69
2023/12/01 02:11:55;;;;;;;13.53;12.80;;;19.70;50.10;;;;;;5003519;28;20526;-70
2023/12/01 02:14:23;;;;;;;14.47;13.67;;;19.70;50.20;;;;;;5006499;28;20450;-70
2023/12/01 02:16:50;;;;;;;13.90;13.30;;;19.70;50.20;;;;;;5006497;28;20953;-70
2023/12/01 02:19:17;;;;;;;14.23;13.53;;;19.70;50.20;;;;;;5003078;28;20455;-69
2023/12/01 02:21:46;;;;;;;14.23;13.53;;;19.70;50.20;;;;;;5008413;28;20832;-69
2023/12/01 02:24:13;;;;;;;13.77;13.10;;;19.70;50.20;;;;;;5005818;28;20450;-69
2023/12/01 02:26:40;;;;;;;14.37;13.63;;;19.70;50.20;;;;;;5006293;28;20477;-69
2023/12/01 02:29:08;;;;;;;14.30;13.50;;;19.70;50.20;;;;;;5004049;28;20532;-69
2023/12/01 02:31:35;;;;;;;13.70;13.10;;;19.70;50.20;;;;;;5008272;28;20477;-70
2023/12/01 02:34:03;;;;;;;13.50;12.80;;;19.70;50.20;;;;;;5004011;28;20477;-69
2023/12/01 02:36:30;;;;;;;14.23;13.43;;;19.60;50.20;;;;;;5007683;28;20841;-68
2023/12/01 02:38:58;;;;;;;13.03;12.33;;;19.70;50.20;;;;;;5005617;28;20466;-69
2023/12/01 02:41:25;;;;;;;13.13;12.43;;;19.70;50.20;;;;;;5007005;28;20462;-69
2023/12/01 02:43:53;;;;;;;13.50;12.90;;;19.60;50.10;;;;;;5004650;28;20493;-68
2023/12/01 02:46:22;;;;;;;13.63;12.73;;;19.60;50.10;;;;;;5002546;28;20449;-70
2023/12/01 02:48:50;;;;;;;13.70;13.00;;;19.60;50.10;;;;;;5009926;28;20524;-69
2023/12/01 02:51:17;;;;;;;14.03;13.20;;;19.60;50.10;;;;;;5002867;28;20917;-69
2023/12/01 02:53:44;;;;;;;14.33;13.73;;;19.60;50.10;;;;;;5002222;28;20443;-69
2023/12/01 02:56:12;;;;;;;16.33;15.43;;;19.60;50.10;;;;;;5003353;28;20442;-69
2023/12/01 02:58:39;;;;;;;15.30;14.60;;;19.60;50.10;;;;;;5008208;28;20949;-70
2023/12/01 03:01:06;;;;;;;15.70;14.90;;;19.50;50.10;;;;;;5004177;28;20846;-69
2023/12/01 03:03:33;;;;;;;15.50;14.60;;;19.50;50.10;;;;;;5000763;28;20478;-69
2023/12/01 03:06:00;;;;;;;14.77;14.03;;;19.50;50.10;;;;;;5001071;28;20477;-68
2023/12/01 03:08:27;;;;;;;15.37;14.60;;;19.50;50.10;;;;;;5005469;28;20490;-69
2023/12/01 03:10:55;;;;;;;14.97;14.27;;;19.60;50.20;;;;;;5005468;28;20478;-70
2023/12/01 03:13:24;;;;;;;15.07;14.27;;;19.50;50.10;;;;;;4998458;28;20442;-70
2023/12/01 03:15:51;;;;;;;15.60;14.60;;;19.50;50.10;;;;;;5005427;28;20878;-69
2023/12/01 03:18:19;;;;;;;16.13;15.27;;;19.50;50.10;;;;;;5002325;28;20524;-70
2023/12/01 03:20:46;;;;;;;14.73;14.03;;;19.50;50.10;;;;;;5008930;28;20442;-70
2023/12/01 03:23:13;;;;;;;15.50;14.50;;;19.40;50.10;;;;;;4997626;28;20474;-68
2023/12/01 03:25:39;;;;;;;16.20;15.30;;;19.40;50.20;;;;;;5005258;28;20442;-69
2023/12/01 03:28:06;;;;;;;17.40;16.43;;;19.40;50.20;;;;;;5003507;28;20494;-70
2023/12/01 03:30:35;;;;;;;14.17;13.47;;;19.50;50.20;;;;;;5007111;28;20509;-69
2023/12/01 03:33:01;;;;;;;16.33;15.33;;;19.40;50.20;;;;;;4997150;28;20478;-69
2023/12/01 03:35:29;;;;;;;16.40;15.60;;;19.50;50.20;;;;;;5005124;28;20474;-70
2023/12/01 03:37:57;;;;;;;17.63;16.73;;;19.50;50.20;;;;;;5004940;28;20532;-69
2023/12/01 03:40:24;;;;;;;16.70;15.80;;;19.40;50.10;;;;;;5001659;28;20443;-70
2023/12/01 03:42:51;;;;;;;15.80;15.00;;;19.40;50.20;;;;;;5007175;28;20452;-70
2023/12/01 03:45:18;;;;;;;17.57;16.57;;;19.50;50.20;;;;;;5001778;28;20443;-70
2023/12/01 03:47:48;;;;;;;15.83;14.87;;;19.50;50.20;;;;;;5008123;28;20875;-70
2023/12/01 03:50:18;;;;;;;16.23;15.33;;;19.40;50.10;;;;;;5002131;28;20900;-70
2023/12/01 03:52:47;;;;;;;15.50;14.53;;;19.50;50.10;;;;;;5004646;28;20450;-70
2023/12/01 03:55:14;;;;;;;14.53;13.73;;;19.50;50.10;;;;;;5002681;28;20461;-69
2023/12/01 03:57:43;;;;;;;14.20;13.50;;;19.50;50.10;;;;;;5007249;28;20671;-68
2023/12/01 04:00:16;;;;;;;14.73;13.83;;;19.40;50.00;;;;;;5002826;28;20438;-70
2023/12/01 04:02:45;;;;;;;14.40;13.70;;;19.50;50.10;;;;;;4999563;28;20443;-69
2023/12/01 04:05:17;;;;;;;13.83;13.23;;;19.50;50.00;;;;;;5003042;28;20533;-69
2023/12/01 04:07:46;;;;;;;15.63;14.73;;;19.50;50.50;;;;;;5003862;28;20544;-69
2023/12/01 04:10:13;;;;;;;16.27;15.23;;;19.50;50.00;;;;;;5002608;28;20565;-69
2023/12/01 04:12:44;;;;;;;15.43;14.63;;;19.50;50.00;;;;;;5002644;28;20449;-69
2023/12/01 04:15:13;;;;;;;15.73;14.90;;;19.50;49.90;;;;;;5002464;28;20454;-69
2023/12/01 04:17:42;;;;;;;15.90;14.87;;;19.40;50.00;;;;;;5001032;28;20489;-69
2023/12/01 04:20:20;;;;;;;14.27;13.47;;;19.50;50.00;;;;;;5001806;28;20530;-70
2023/12/01 04:22:49;;;;;;;15.03;14.13;;;19.50;50.00;;;;;;5004421;28;20476;-69
2023/12/01 04:25:17;;;;;;;17.17;16.17;;;19.50;50.00;;;;;;5001637;28;20446;-69
2023/12/01 04:27:45;;;;;;;16.00;15.17;;;19.40;49.90;;;;;;5006894;28;20470;-69
2023/12/01 04:30:15;;;;;;;15.90;15.10;;;19.40;50.00;;;;;;4997038;28;20566;-70
2023/12/01 04:32:43;;;;;;;15.07;14.37;;;19.40;50.00;;;;;;5003970;28;20493;-69
2023/12/01 04:35:12;;;;;;;15.97;14.90;;;19.40;49.90;;;;;;5002463;28;20523;-69
2023/12/01 04:37:39;;;;;;;16.40;15.40;;;19.40;49.90;;;;;;5006075;28;20454;-69
2023/12/01 04:40:14;;;;;;;15.60;14.60;;;19.40;49.90;;;;;;4997064;28;20466;-70
2023/12/01 04:42:43;;;;;;;14.97;14.17;;;19.30;49.90;;;;;;5003943;28;20452;-70
2023/12/01 04:45:12;;;;;;;15.57;14.77;;;19.40;50.00;;;;;;5002248;28;20529;-70
2023/12/01 04:47:40;;;;;;;14.73;14.03;;;19.40;50.00;;;;;;5000522;28;20586;-69
2023/12/01 04:50:13;;;;;;;15.70;14.80;;;19.30;49.90;;;;;;5000910;28;20514;-70
2023/12/01 04:52:42;;;;;;;15.43;14.73;;;19.40;49.90;;;;;;5003751;28;20564;-70
2023/12/01 04:55:13;;;;;;;15.40;14.53;;;19.40;49.90;;;;;;5002309;28;20481;-69
2023/12/01 05:00:19;;;;;;;16.53;15.63;;;19.40;49.80;;;;;;5040369;23;20569;-68
2023/12/01 05:02:47;;;;;;;15.80;14.90;;;19.40;49.80;;;;;;5003877;28;20446;-68
2023/12/01 05:05:15;;;;;;;17.63;16.70;;;19.30;49.70;;;;;;5002326;28;20447;-68
2023/12/01 05:07:42;;;;;;;16.20;15.33;;;19.30;49.80;;;;;;5003744;28;20481;-68
2023/12/01 05:10:14;;;;;;;16.13;15.33;;;19.30;49.80;;;;;;5001600;28;20505;-68
2023/12/01 05:12:44;;;;;;;16.97;16.07;;;19.30;49.80;;;;;;5000394;28;20454;-68
2023/12/01 05:15:16;;;;;;;17.70;16.80;;;19.40;49.80;;;;;;5001696;28;20881;-68
2023/12/01 05:17:48;;;;;;;16.87;15.87;;;19.30;49.80;;;;;;5003554;28;20805;-68
2023/12/01 05:20:16;;;;;;;15.80;14.90;;;19.30;49.80;;;;;;5003080;28;20472;-68
2023/12/01 05:22:45;;;;;;;16.57;15.73;;;19.40;49.90;;;;;;5004149;28;20501;-68
2023/12/01 05:25:14;;;;;;;17.17;15.97;;;19.40;50.70;;;;;;5005584;28;20474;-68
2023/12/01 05:27:44;;;;;;;18.70;17.20;;;19.40;51.20;;;;;;5002236;28;20882;-68
2023/12/01 05:30:13;;;;;;;19.17;17.23;;;19.40;52.40;;;;;;5003408;28;20885;-68
2023/12/01 05:32:41;;;;;;;18.23;17.00;;;19.40;53.60;;;;;;5007436;28;20438;-68
2023/12/01 05:35:11;;;;;;;19.60;17.67;;;19.40;53.40;;;;;;5006433;28;20868;-68
2023/12/01 05:37:39;;;;;;;20.60;18.77;;;19.40;53.60;;;;;;5003988;28;20526;-68
2023/12/01 05:40:08;;;;;;;19.50;17.90;;;19.50;53.10;;;;;;5004286;28;20462;-68
2023/12/01 05:42:36;;;;;;;20.97;18.80;;;19.50;53.20;;;;;;5007293;28;20454;-68
2023/12/01 05:45:05;;;;;;;24.33;19.70;;;19.50;53.80;;;;;;5007258;28;20457;-68
2023/12/01 05:47:32;;;;;;;33.83;20.63;;;19.50;57.30;;;;;;5003484;28;20477;-69
2023/12/01 05:49:59;;;;;;;29.80;22.40;;;19.60;63.30;;;;;;4990955;28;20570;-67
2023/12/01 05:52:26;;;;;;;21.57;19.40;;;19.60;68.30;;;;;;5006250;28;20930;-68
2023/12/01 05:54:53;;;;;;;27.53;19.63;;;19.60;71.00;;;;;;5006746;28;20477;-67
2023/12/01 05:57:19;;;;;;;26.53;22.87;;;19.60;70.40;;;;;;5004340;28;20445;-67
2023/12/01 05:59:48;;;;;;;22.63;20.23;;;19.60;69.50;;;;;;5003738;28;20481;-68
2023/12/01 06:02:15;;;;;;;24.53;19.97;;;19.50;68.80;;;;;;5005278;28;20442;-67
2023/12/01 06:04:42;;;;;;;28.53;22.50;;;19.60;68.40;;;;;;5006662;28;20477;-67
2023/12/01 06:07:09;;;;;;;25.83;23.07;;;19.50;68.20;;;;;;5005574;28;20890;-67
2023/12/01 06:09:36;;;;;;;21.50;19.37;;;19.40;67.90;;;;;;5003142;28;20520;-67
2023/12/01 06:12:03;;;;;;;25.87;22.53;;;19.40;67.40;;;;;;5003250;28;20514;-68
2023/12/01 06:14:31;;;;;;;22.03;20.27;;;19.30;67.00;;;;;;5006464;28;20499;-67
2023/12/01 06:17:00;;;;;;;25.30;21.30;;;19.40;66.50;;;;;;5006629;28;20524;-67
2023/12/01 06:19:27;;;;;;;23.80;21.30;;;19.30;65.90;;;;;;4995073;28;20532;-67
2023/12/01 06:21:57;;;;;;;25.63;20.17;;;19.30;65.30;;;;;;5003010;28;20493;-67
2023/12/01 06:24:25;;;;;;;22.17;19.83;;;19.30;64.80;;;;;;5005746;28;20536;-67
2023/12/01 06:26:53;;;;;;;22.13;20.03;;;19.30;64.00;;;;;;5006223;28;20480;-67
2023/12/01 06:29:21;;;;;;;24.87;22.37;;;19.30;63.40;;;;;;5003610;28;20465;-67
2023/12/01 06:31:48;;;;;;;21.17;18.80;;;19.40;62.70;;;;;;5002167;28;20505;-67
2023/12/01 06:34:16;;;;;;;21.07;18.50;;;19.40;62.20;;;;;;5004318;28;20529;-67
2023/12/01 06:36:43;;;;;;;20.30;18.60;;;19.30;61.50;;;;;;5006102;28;20577;-67
2023/12/01 06:39:10;;;;;;;20.57;18.30;;;19.30;61.20;;;;;;5005082;28;20498;-67
2023/12/01 06:41:38;;;;;;;19.90;18.10;;;19.30;60.70;;;;;;5002623;28;20447;-67
2023/12/01 06:44:06;;;;;;;20.17;18.67;;;19.30;60.40;;;;;;5002763;28;20443;-67
2023/12/01 06:46:33;;;;;;;17.90;16.70;;;19.30;60.00;;;;;;5005941;28;20495;-67
2023/12/01 06:49:00;;;;;;;19.43;17.67;;;19.30;59.70;;;;;;5005805;28;20472;-68
2023/12/01 06:51:28;;;;;;;19.47;17.63;;;19.30;59.40;;;;;;5002529;28;20510;-67
2023/12/01 06:53:56;;;;;;;18.00;16.60;;;19.30;59.20;;;;;;5002486;28;20536;-68
2023/12/01 06:56:23;;;;;;;19.87;17.90;;;19.30;58.90;;;;;;5005150;28;20454;-68
2023/12/01 06:58:50;;;;;;;18.63;17.03;;;19.30;58.70;;;;;;5005676;28;20477;-68
2023/12/01 07:01:19;;;;;;;18.63;17.13;;;19.30;58.50;;;;;;5003748;28;20929;-69
2023/12/01 07:03:46;;;;;;;17.20;16.10;;;19.30;58.20;;;;;;5002513;28;20539;-68
2023/12/01 07:06:13;;;;;;;19.40;17.37;;;19.30;58.00;;;;;;5003540;28;20479;-68
2023/12/01 07:08:42;;;;;;;16.93;15.70;;;19.40;57.80;;;;;;5005626;28;20489;-68
2023/12/01 07:11:09;;;;;;;19.43;17.67;;;19.40;57.60;;;;;;5004833;28;21016;-68
2023/12/01 07:13:36;;;;;;;18.57;17.40;;;19.40;57.50;;;;;;5002606;28;20478;-68
2023/12/01 07:16:09;;;;;;;22.63;20.93;;;19.40;57.30;;;;;;5002429;28;20547;-68
2023/12/01 07:18:38;;;;;;;18.37;16.93;;;19.30;57.20;;;;;;4995240;28;20467;-68
2023/12/01 07:21:06;;;;;;;18.17;16.70;;;19.20;57.10;;;;;;5002835;28;20642;-68
2023/12/01 07:23:33;;;;;;;16.87;15.87;;;19.20;57.00;;;;;;5006186;28;20485;-68
2023/12/01 07:26:02;;;;;;;16.90;15.87;;;19.20;56.90;;;;;;5006388;28;20480;-68
2023/12/01 07:28:29;;;;;;;17.60;16.40;;;19.20;56.80;;;;;;5002587;28;20974;-68
2023/12/01 07:30:56;;;;;;;17.83;16.53;;;19.20;56.80;;;;;;5002018;28;20998;-69
2023/12/01 07:33:23;;;;;;;18.03;16.50;;;19.20;56.70;;;;;;5004130;28;20479;-68
2023/12/01 07:35:50;;;;;;;19.00;17.60;;;19.20;56.60;;;;;;5005135;28;20492;-68
2023/12/01 07:38:17;;;;;;;17.03;16.20;;;19.20;56.50;;;;;;5003290;28;20501;-68
2023/12/01 07:40:44;;;;;;;18.60;17.67;;;19.20;56.40;;;;;;5001534;28;20534;-69
2023/12/01 07:43:13;;;;;;;20.60;19.00;;;19.10;56.20;;;;;;5001352;28;20443;-69
2023/12/01 07:45:39;;;;;;;18.07;17.00;;;19.20;56.30;;;;;;5004875;28;20485;-68
2023/12/01 07:48:09;;;;;;;18.60;17.20;;;19.20;56.10;;;;;;5004479;28;20504;-68
2023/12/01 07:50:36;;;;;;;18.37;17.37;;;19.10;56.00;;;;;;5001371;28;20486;-68
2023/12/01 07:53:04;;;;;;;17.53;16.40;;;19.10;55.90;;;;;;5001495;28;20525;-69
2023/12/01 07:55:31;;;;;;;17.07;16.17;;;19.10;55.80;;;;;;4993468;28;20446;-68
2023/12/01 07:57:58;;;;;;;16.53;15.73;;;19.10;55.70;;;;;;5001181;28;20861;-68
2023/12/01 08:00:27;;;;;;;17.67;16.17;;;19.20;55.60;;;;;;5004081;28;20449;-69
2023/12/01 08:02:55;;;;;;;16.93;16.13;;;19.10;55.50;;;;;;5004639;28;20446;-69
2023/12/01 08:05:22;;;;;;;17.00;16.00;;;19.20;55.40;;;;;;5002372;28;20504;-68
2023/12/01 08:07:52;;;;;;;17.47;16.37;;;19.20;55.30;;;;;;5001158;28;20447;-69
2023/12/01 08:10:19;;;;;;;16.80;15.80;;;19.20;55.20;;;;;;5002586;28;20443;-69
2023/12/01 08:12:46;;;;;;;16.63;15.73;;;19.10;55.10;;;;;;5004337;28;20513;-69
2023/12/01 08:15:14;;;;;;;16.37;15.17;;;19.20;55.10;;;;;;5003259;28;20478;-69
2023/12/01 08:17:44;;;;;;;17.30;16.20;;;19.20;54.90;;;;;;5000933;28;20482;-69
2023/12/01 08:20:12;;;;;;;16.93;15.70;;;19.20;54.80;;;;;;5001468;28;20891;-69
2023/12/01 08:22:39;;;;;;;15.93;15.03;;;19.20;54.70;;;;;;5004247;28;20470;-69
2023/12/01 08:25:09;;;;;;;17.37;16.37;;;19.10;54.60;;;;;;5004319;28;20454;-69
2023/12/01 08:27:36;;;;;;;17.63;16.43;;;19.10;54.60;;;;;;4993341;28;20474;-69
2023/12/01 08:30:03;;;;;;;17.97;16.97;;;19.10;54.60;;;;;;5000745;28;20499;-68
2023/12/01 08:32:30;;;;;;;17.30;16.50;;;19.10;54.50;;;;;;5003616;28;21019;-69
2023/12/01 08:34:58;;;;;;;16.63;15.93;;;19.10;54.50;;;;;;5004208;28;20480;-69
2023/12/01 08:37:25;;;;;;;17.07;16.37;;;19.10;54.30;;;;;;5001490;28;20474;-69
2023/12/01 08:39:52;;;;;;;16.07;15.17;;;19.20;54.90;;;;;;5000581;28;20899;-69
2023/12/01 08:42:19;;;;;;;17.30;16.37;;;19.10;54.20;;;;;;5002102;28;20874;-69
2023/12/01 08:44:46;;;;;;;15.70;14.90;;;19.10;54.20;;;;;;5003959;28;20477;-69
2023/12/01 08:47:13;;;;;;;16.60;15.57;;;19.00;54.10;;;;;;5003028;28;20833;-69
2023/12/01 08:49:40;;;;;;;16.13;15.20;;;19.00;54.10;;;;;;5000520;28;20844;-69
2023/12/01 08:52:09;;;;;;;16.37;15.57;;;19.00;54.10;;;;;;5000589;28;20914;-69
2023/12/01 08:54:36;;;;;;;16.23;15.53;;;19.10;54.10;;;;;;4992478;28;20486;-69
2023/12/01 08:57:03;;;;;;;17.37;15.90;;;19.10;54.10;;;;;;5000213;28;20962;-69
2023/12/01 08:59:30;;;;;;;16.43;15.63;;;19.00;54.00;;;;;;5002983;28;20504;-69
2023/12/01 09:01:57;;;;;;;15.60;14.90;;;19.00;54.00;;;;;;5003947;28;20473;-69
2023/12/01 09:04:24;;;;;;;15.80;15.20;;;19.00;53.90;;;;;;5001314;28;20933;-69
2023/12/01 09:06:51;;;;;;;15.43;14.73;;;19.00;53.90;;;;;;5000197;28;20481;-69
2023/12/01 09:09:20;;;;;;;15.93;15.30;;;19.00;53.80;;;;;;5001691;28;20459;-69
2023/12/01 09:11:46;;;;;;;15.30;14.50;;;19.10;53.90;;;;;;5003780;28;20493;-69
2023/12/01 09:14:13;;;;;;;15.17;14.47;;;19.00;53.70;;;;;;5003314;28;20473;-69
2023/12/01 09:16:40;;;;;;;16.27;15.57;;;19.00;53.70;;;;;;5000163;28;20501;-69
2023/12/01 09:19:07;;;;;;;15.20;14.50;;;19.00;53.60;;;;;;5000049;28;20497;-69
2023/12/01 09:21:34;;;;;;;15.70;14.90;;;19.00;53.60;;;;;;5000210;28;20466;-69
2023/12/01 09:24:01;;;;;;;16.27;15.37;;;19.00;53.50;;;;;;5000154;28;20481;-68
2023/12/01 09:26:30;;;;;;;16.17;15.47;;;19.00;53.50;;;;;;5002738;28;20482;-68
2023/12/01 09:28:57;;;;;;;15.73;15.10;;;19.00;53.40;;;;;;5003441;28;20902;-68
2023/12/01 09:31:24;;;;;;;15.50;14.90;;;19.00;53.40;;;;;;5001256;28;20496;-68
2023/12/01 09:33:51;;;;;;;15.67;14.97;;;19.00;53.40;;;;;;5000047;28;20478;-69
2023/12/01 09:36:18;;;;;;;16.07;15.47;;;19.00;53.30;;;;;;5000867;28;20481;-68
2023/12/01 09:38:45;;;;;;;15.90;15.10;;;19.00;53.20;;;;;;5003301;28;20490;-68
2023/12/01 09:41:11;;;;;;;15.73;15.13;;;19.10;53.40;;;;;;5002781;28;20520;-68
2023/12/01 09:43:43;;;;;;;15.47;14.77;;;19.00;53.20;;;;;;4999936;28;20486;-68
2023/12/01 09:46:11;;;;;;;15.30;14.80;;;19.10;53.30;;;;;;4999826;28;20542;-68
2023/12/01 09:48:41;;;;;;;16.40;15.80;;;19.10;53.10;;;;;;5003148;28;20985;-68
2023/12/01 09:51:09;;;;;;;15.77;15.13;;;19.00;53.00;;;;;;5003181;28;20480;-69
2023/12/01 09:53:36;;;;;;;16.77;16.07;;;19.00;53.00;;;;;;5003159;28;20506;-68
2023/12/01 09:56:05;;;;;;;15.60;15.00;;;19.00;53.00;;;;;;5003147;28;20489;-68
2023/12/01 09:58:33;;;;;;;15.80;14.87;;;19.00;53.00;;;;;;4999962;28;20471;-68
2023/12/01 10:01:02;;;;;;;15.07;14.43;;;19.00;53.00;;;;;;4999661;28;20935;-68
2023/12/01 10:03:29;;;;;;;15.83;15.13;;;19.00;53.00;;;;;;5002088;28;20447;-68
2023/12/01 10:05:59;;;;;;;15.97;15.37;;;19.00;52.90;;;;;;5004353;28;20473;-68
2023/12/01 10:08:27;;;;;;;14.90;14.40;;;18.90;52.90;;;;;;5004692;28;20472;-68
2023/12/01 10:10:54;;;;;;;14.20;13.70;;;19.00;52.90;;;;;;5003232;28;20877;-68
2023/12/01 10:13:21;;;;;;;15.33;14.60;;;19.00;52.80;;;;;;5004376;28;20478;-68
2023/12/01 10:15:49;;;;;;;14.27;13.77;;;19.00;52.80;;;;;;5006732;28;20969;-69
2023/12/01 10:18:19;;;;;;;16.60;16.00;;;19.10;52.80;;;;;;5005669;28;20494;-68
2023/12/01 10:21:02;;;;;;;16.33;15.73;;;19.00;52.60;;;;;;5003527;28;20443;-68
2023/12/01 10:23:30;;;;;;;15.60;14.73;;;19.00;52.60;;;;;;5005643;28;20451;-68
2023/12/01 10:25:57;;;;;;;16.37;15.67;;;19.00;52.70;;;;;;5006361;28;20453;-68
2023/12/01 10:28:38;;;;;;;15.10;14.50;;;18.90;52.70;;;;;;5004481;28;20497;-68
2023/12/01 10:31:05;;;;;;;14.70;14.20;;;18.90;52.60;;;;;;5002944;28;20501;-68
2023/12/01 10:33:35;;;;;;;15.10;14.50;;;18.90;52.60;;;;;;5005619;28;20517;-68
2023/12/01 10:36:04;;;;;;;14.33;13.83;;;18.90;52.60;;;;;;5006232;28;20855;-69
2023/12/01 10:38:33;;;;;;;15.83;15.17;;;18.90;52.50;;;;;;5003310;28;20880;-68
2023/12/01 10:41:00;;;;;;;15.37;14.87;;;18.90;52.50;;;;;;5002869;28;20538;-68
2023/12/01 10:43:28;;;;;;;15.40;14.80;;;18.90;52.50;;;;;;5004687;28;20474;-69
2023/12/01 10:45:58;;;;;;;15.27;14.67;;;18.90;52.40;;;;;;5005934;28;20470;-68
2023/12/01 10:48:27;;;;;;;14.40;13.90;;;18.90;52.40;;;;;;5004164;28;20490;-68
2023/12/01 10:50:55;;;;;;;14.93;14.40;;;18.90;52.40;;;;;;5002626;28;20822;-68
2023/12/01 10:53:25;;;;;;;15.00;14.50;;;18.90;52.40;;;;;;5003677;28;20486;-69
2023/12/01 10:55:56;;;;;;;15.10;14.60;;;18.90;52.40;;;;;;5006195;28;20477;-69
2023/12/01 10:58:25;;;;;;;14.40;13.90;;;18.90;52.20;;;;;;5004318;28;21110;-69
2023/12/01 11:00:53;;;;;;;14.60;14.10;;;18.90;52.20;;;;;;5002313;28;20522;-68
2023/12/01 11:03:23;;;;;;;14.37;13.97;;;18.90;52.20;;;;;;5003379;28;20471;-69
2023/12/01 11:05:53;;;;;;;14.60;14.00;;;18.90;52.20;;;;;;5005625;28;20442;-69
2023/12/01 11:08:41;;;;;;;14.67;13.83;;;18.90;52.10;;;;;;5004398;28;20546;-69
2023/12/01 11:11:16;;;;;;;15.10;14.60;;;18.90;52.10;;;;;;5002348;28;20466;-68
2023/12/01 11:13:53;;;;;;;15.23;14.63;;;18.90;52.00;;;;;;4994626;28;20592;-68
2023/12/01 11:16:21;;;;;;;14.60;14.10;;;18.90;52.00;;;;;;5002967;28;20865;-68
2023/12/01 11:18:49;;;;;;;14.87;14.37;;;18.90;52.00;;;;;;5005309;28;20498;-68
2023/12/01 11:21:18;;;;;;;14.83;14.33;;;18.90;52.00;;;;;;5004842;28;20500;-68
2023/12/01 11:23:46;;;;;;;13.83;13.43;;;18.90;52.00;;;;;;5002004;28;20439;-68
2023/12/01 11:26:13;;;;;;;14.53;14.03;;;18.90;52.00;;;;;;5001893;28;20447;-68
2023/12/01 11:28:45;;;;;;;14.73;14.20;;;18.90;52.10;;;;;;4989373;28;20508;-69
2023/12/01 11:31:18;;;;;;;14.60;14.10;;;18.90;52.00;;;;;;5005290;28;20454;-68
2023/12/01 11:33:47;;;;;;;15.23;14.63;;;18.90;51.90;;;;;;4994840;28;20493;-68
2023/12/01 11:36:25;;;;;;;15.90;15.30;;;18.90;51.90;;;;;;5001694;28;20478;-68
2023/12/01 11:39:16;;;;;;;15.23;14.73;;;18.90;51.80;;;;;;5005057;28;21018;-68
2023/12/01 11:41:45;;;;;;;14.53;14.03;;;18.90;51.80;;;;;;4994343;28;20451;-67
2023/12/01 11:44:12;;;;;;;14.00;13.60;;;18.90;51.80;;;;;;5001887;28;20471;-68
2023/12/01 11:46:40;;;;;;;13.97;13.57;;;18.90;51.80;;;;;;5004645;28;20442;-68
2023/12/01 11:49:07;;;;;;;14.97;14.47;;;18.90;51.80;;;;;;5004955;28;20985;-68
2023/12/01 11:51:34;;;;;;;14.40;14.00;;;18.90;51.80;;;;;;5002160;28;20477;-68
2023/12/01 11:54:02;;;;;;;14.37;13.97;;;18.90;51.70;;;;;;5001407;28;20479;-68
2023/12/01 11:56:32;;;;;;;15.23;14.63;;;18.80;51.60;;;;;;5003165;28;20474;-68
2023/12/01 11:58:59;;;;;;;15.43;14.90;;;18.80;51.70;;;;;;5004352;28;20474;-68
2023/12/01 12:01:26;;;;;;;14.70;14.30;;;18.80;51.70;;;;;;5003218;28;21039;-68
2023/12/01 12:03:54;;;;;;;14.20;13.73;;;18.80;51.70;;;;;;5001626;28;20501;-68
2023/12/01 12:06:21;;;;;;;15.27;14.70;;;18.80;51.70;;;;;;5001824;28;20439;-68
2023/12/01 12:08:50;;;;;;;14.17;13.70;;;18.80;52.10;;;;;;5004395;28;20880;-68
2023/12/01 12:11:18;;;;;;;15.57;14.97;;;18.90;51.70;;;;;;5004057;28;20457;-68
2023/12/01 12:13:56;;;;;;;14.37;13.97;;;18.90;51.50;;;;;;5001262;28;20475;-68
2023/12/01 12:16:24;;;;;;;14.53;14.13;;;18.90;51.50;;;;;;5001815;28;20501;-68
2023/12/01 12:18:51;;;;;;;14.00;13.50;;;18.90;51.40;;;;;;5004126;28;20517;-68
2023/12/01 12:21:18;;;;;;;13.80;13.40;;;18.80;51.40;;;;;;5003753;28;20873;-68
2023/12/01 12:23:46;;;;;;;13.90;13.50;;;18.80;51.40;;;;;;5001329;28;20482;-68
2023/12/01 12:26:17;;;;;;;13.97;13.57;;;18.90;51.40;;;;;;5001062;28;20475;-68
2023/12/01 12:28:48;;;;;;;13.40;13.00;;;18.80;51.30;;;;;;4994411;28;20470;-67
2023/12/01 12:31:16;;;;;;;13.30;12.80;;;18.80;51.40;;;;;;5001844;28;20502;-68
2023/12/01 12:33:43;;;;;;;15.00;14.50;;;18.80;51.40;;;;;;4993073;28;20526;-67
2023/12/01 12:36:13;;;;;;;14.40;13.90;;;18.90;51.30;;;;;;5003566;28;20481;-68